Elandra Oak — V7RD5 — position and weather

sailwx.info

Track history (hours):
 
Tides and Currents Weather Stations Pressure Air Temp Water Temp Dewpoint Dewpoint Depression Visibility Wind Speed Wind Dir Waves Ship Positions

Elandra Oak

Last reported at 2017-Sep-22 01:58 UTC. Time now 2017-Sep-22 11:55 UTC.
Position N 39°49' W 075°24'.

Length 183 m; draft 12.2 m.

Type: Ship. MMSI: 538006775.

Date/timePositionNaut miles runAvg speedWind from/ knotsBaromVisibWave heightAir tempDewpointWater temp
2017-Sep-22 01:58N 39°49' W 075°24'0 0.1
2017-Sep-22 01:28N 39°49' W 075°24'0 0.0
2017-Sep-22 00:58N 39°49' W 075°24'0 0.0
2017-Sep-22 00:28N 39°49' W 075°24'0 0.0
2017-Sep-21 23:58N 39°49' W 075°24'0 0.0
2017-Sep-21 23:28N 39°49' W 075°24'0 0.0
2017-Sep-21 22:58N 39°49' W 075°24'0 0.0
2017-Sep-21 22:28N 39°49' W 075°24'0 0.0
2017-Sep-21 21:58N 39°49' W 075°24'0 0.0
2017-Sep-21 21:28N 39°49' W 075°24'0 0.0
2017-Sep-21 20:58N 39°49' W 075°24'0 0.0
2017-Sep-21 20:28N 39°49' W 075°24'0 0.3
2017-Sep-21 19:58N 39°49' W 075°24'0 0.1
2017-Sep-21 19:28N 39°49' W 075°24'0 0.0
2017-Sep-21 18:58N 39°49' W 075°24'0 0.1
2017-Sep-21 18:28N 39°49' W 075°24'0 0.0
2017-Sep-21 17:58N 39°49' W 075°24'0 0.7
2017-Sep-21 17:31N 39°49' W 075°23'2 3.8
2017-Sep-21 17:01N 39°50' W 075°22'4 7.3
2017-Sep-21 16:30N 39°51' W 075°17'4 7.3
2017-Sep-21 16:01N 39°52' W 075°13'2 4.7
2017-Sep-21 15:30N 39°53' W 075°10'0 0.1
2017-Sep-21 14:58N 39°53' W 075°10'0 0.0
2017-Sep-21 14:28N 39°53' W 075°10'0 0.0
2017-Sep-21 13:58N 39°53' W 075°10'0 0.0
2017-Sep-21 13:28N 39°53' W 075°10'0 0.0
2017-Sep-21 12:58N 39°53' W 075°10'0 0.0
2017-Sep-21 12:28N 39°53' W 075°10'0 0.0
2017-Sep-21 11:58N 39°53' W 075°10'0 0.0
2017-Sep-21 11:28N 39°53' W 075°10'0 0.0
2017-Sep-21 10:58N 39°53' W 075°10'0 0.0
2017-Sep-21 10:28N 39°53' W 075°10'0 0.0
2017-Sep-21 09:58N 39°53' W 075°10'0 0.0
2017-Sep-21 09:28N 39°53' W 075°10'0 0.0
2017-Sep-21 08:58N 39°53' W 075°10'0 0.0
2017-Sep-21 08:28N 39°53' W 075°10'0 0.0
2017-Sep-21 07:58N 39°53' W 075°10'0 0.0
2017-Sep-21 07:28N 39°53' W 075°10'0 0.0
2017-Sep-21 06:58N 39°53' W 075°10'0 0.0
2017-Sep-21 06:28N 39°53' W 075°10'0 0.0
2017-Sep-21 05:55N 39°53' W 075°10'0 0.0
2017-Sep-21 05:28N 39°53' W 075°10'0 0.0
2017-Sep-21 04:58N 39°53' W 075°10'0 0.0
2017-Sep-21 04:28N 39°53' W 075°10'0 0.0
2017-Sep-21 03:58N 39°53' W 075°10'0 0.0
2017-Sep-21 03:28N 39°53' W 075°10'0 0.0
2017-Sep-21 02:58N 39°53' W 075°10'0 0.0
2017-Sep-21 02:25N 39°53' W 075°10'0 0.0
2017-Sep-21 01:58N 39°53' W 075°10'0 0.0
2017-Sep-21 01:28N 39°53' W 075°10'0 0.0
2017-Sep-21 00:58N 39°53' W 075°10'0 0.0
2017-Sep-21 00:28N 39°53' W 075°10'0 0.0
2017-Sep-20 23:58N 39°53' W 075°10'0 0.0
2017-Sep-20 23:28N 39°53' W 075°10'0 0.0
2017-Sep-20 22:58N 39°53' W 075°10'0 0.0
2017-Sep-20 22:28N 39°53' W 075°10'0 0.0
2017-Sep-20 21:58N 39°53' W 075°10'0 0.0
2017-Sep-20 21:28N 39°53' W 075°10'0 0.0
2017-Sep-20 20:58N 39°53' W 075°10'0 0.0
2017-Sep-20 20:28N 39°53' W 075°10'0 0.0
2017-Sep-20 19:58N 39°53' W 075°10'0 0.0
2017-Sep-20 19:28N 39°53' W 075°10'0 0.0
2017-Sep-20 18:58N 39°53' W 075°10'0 0.0
2017-Sep-20 18:28N 39°53' W 075°10'0 0.0
2017-Sep-20 17:58N 39°53' W 075°10'0 0.0
2017-Sep-20 17:28N 39°53' W 075°10'0 0.0
2017-Sep-20 17:01N 39°53' W 075°10'1 1.8
2017-Sep-20 16:31N 39°53' W 075°11'1 1.7
2017-Sep-20 16:01N 39°53' W 075°12'1 1.0
2017-Sep-20 15:30N 39°54' W 075°12'0 0.2
2017-Sep-20 14:58N 39°54' W 075°12'0 0.0
2017-Sep-20 13:58N 39°54' W 075°12'0 0.0
2017-Sep-20 13:28N 39°54' W 075°12'0 0.0
2017-Sep-20 12:58N 39°54' W 075°12'0 0.0
2017-Sep-20 12:28N 39°54' W 075°12'0 0.0
2017-Sep-20 11:58N 39°54' W 075°12'0 0.0
2017-Sep-20 11:28N 39°54' W 075°12'0 0.0
2017-Sep-20 10:58N 39°54' W 075°12'0 0.0
2017-Sep-20 10:28N 39°54' W 075°12'0 0.0
2017-Sep-20 09:55N 39°54' W 075°12'0 0.0
2017-Sep-20 09:28N 39°54' W 075°12'0 0.0
2017-Sep-20 08:58N 39°54' W 075°12'0 0.0
2017-Sep-20 08:28N 39°54' W 075°12'0 0.0
2017-Sep-20 07:58N 39°54' W 075°12'0 0.0
2017-Sep-20 07:28N 39°54' W 075°12'0 0.0
2017-Sep-20 06:58N 39°54' W 075°12'0 0.0
2017-Sep-20 06:28N 39°54' W 075°12'0 0.0
2017-Sep-20 05:58N 39°54' W 075°12'0 0.0
2017-Sep-20 05:28N 39°54' W 075°12'0 0.0
2017-Sep-20 04:58N 39°54' W 075°12'0 0.0
2017-Sep-20 04:28N 39°54' W 075°12'0 0.0
2017-Sep-20 03:58N 39°54' W 075°12'0 0.0
2017-Sep-20 03:28N 39°54' W 075°12'0 0.0
2017-Sep-20 02:58N 39°54' W 075°12'0 0.0
2017-Sep-20 02:28N 39°54' W 075°12'0 0.0
2017-Sep-20 01:58N 39°54' W 075°12'0 0.0
2017-Sep-20 01:28N 39°54' W 075°12'0 0.0
2017-Sep-20 00:58N 39°54' W 075°12'0 0.0
2017-Sep-20 00:28N 39°54' W 075°12'0 0.0
2017-Sep-19 23:58N 39°54' W 075°12'0 0.0
2017-Sep-19 23:28N 39°54' W 075°12'0 0.0
2017-Sep-19 22:58N 39°54' W 075°12'0 0.0
2017-Sep-19 22:28N 39°54' W 075°12'0 0.0
2017-Sep-19 21:58N 39°54' W 075°12'0 0.0
2017-Sep-19 21:28N 39°54' W 075°12'0 0.0
2017-Sep-19 20:58N 39°54' W 075°12'0 0.0
2017-Sep-19 20:28N 39°54' W 075°12'0 0.0
2017-Sep-19 19:58N 39°54' W 075°12'0 0.0
2017-Sep-19 19:28N 39°54' W 075°12'0 0.0
2017-Sep-19 18:58N 39°54' W 075°12'0 0.0
2017-Sep-19 18:28N 39°54' W 075°12'0 0.0
2017-Sep-19 17:58N 39°54' W 075°12'0 0.0
2017-Sep-19 17:28N 39°54' W 075°12'0 0.0
2017-Sep-19 16:58N 39°54' W 075°12'0 0.0
2017-Sep-19 16:28N 39°54' W 075°12'0 0.0
2017-Sep-19 15:58N 39°54' W 075°12'0 0.0
2017-Sep-19 15:28N 39°54' W 075°12'0 0.0
2017-Sep-19 14:58N 39°54' W 075°12'0 0.0
2017-Sep-19 14:28N 39°54' W 075°12'0 0.0
2017-Sep-19 13:58N 39°54' W 075°12'0 0.0
2017-Sep-19 13:28N 39°54' W 075°12'0 0.0
2017-Sep-19 12:58N 39°54' W 075°12'0 0.0
2017-Sep-19 12:28N 39°54' W 075°12'0 0.0
2017-Sep-19 11:58N 39°54' W 075°12'0 0.0
2017-Sep-19 11:28N 39°54' W 075°12'0 0.0
2017-Sep-19 10:58N 39°54' W 075°12'0 0.0
2017-Sep-19 10:28N 39°54' W 075°12'0 0.0
2017-Sep-19 09:58N 39°54' W 075°12'0 0.0
2017-Sep-19 09:28N 39°54' W 075°12'0 0.0
2017-Sep-19 08:58N 39°54' W 075°12'0 0.0
2017-Sep-19 08:28N 39°54' W 075°12'0 0.0
2017-Sep-19 07:58N 39°54' W 075°12'0 0.0
2017-Sep-19 07:28N 39°54' W 075°12'0 0.0
2017-Sep-19 06:58N 39°54' W 075°12'0 0.0
2017-Sep-19 06:28N 39°54' W 075°12'0 0.0
2017-Sep-19 05:58N 39°54' W 075°12'0 0.0
2017-Sep-19 05:28N 39°54' W 075°12'0 0.0
2017-Sep-19 04:58N 39°54' W 075°12'0 0.0
2017-Sep-19 04:28N 39°54' W 075°12'0 0.0
2017-Sep-19 03:58N 39°54' W 075°12'0 0.0
2017-Sep-19 03:28N 39°54' W 075°12'0 0.0
2017-Sep-19 02:55N 39°54' W 075°12'0 0.0
2017-Sep-19 02:28N 39°54' W 075°12'0 0.1
2017-Sep-19 02:00N 39°54' W 075°12'1 2.2
2017-Sep-19 01:31N 39°53' W 075°12'3 6.5
2017-Sep-19 01:00N 39°51' W 075°16'611.5
2017-Sep-19 00:31N 39°49' W 075°23'4 8.5
2017-Sep-19 00:00N 39°47' W 075°28'611.7
2017-Sep-18 23:30N 39°42' W 075°31'612.0
2017-Sep-18 23:01N 39°36' W 075°34'510.6
2017-Sep-18 22:30N 39°31' W 075°33'612.1
2017-Sep-18 22:00N 39°25' W 075°31'713.0
2017-Sep-18 21:30N 39°20' W 075°25'713.1
2017-Sep-18 21:01N 39°15' W 075°20'713.2
2017-Sep-18 20:30N 39°10' W 075°15'713.7
2017-Sep-18 20:00N 39°04' W 075°11'713.6
2017-Sep-18 19:31N 38°58' W 075°07'613.0
2017-Sep-18 19:00N 38°52' W 075°04'5 9.7
2017-Sep-18 18:30N 38°47' W 075°02'5 9.5
2017-Sep-18 17:59N 38°48' W 074°56'612.8
2017-Sep-18 17:29N 38°48' W 074°47'613.0
2017-Sep-18 17:00N 38°49' W 074°39'610.8
2017-Sep-18 16:27N 38°50' W 074°32'1 2.6
2017-Sep-18 16:00N 38°49' W 074°32'4 8.6
2017-Sep-18 15:29N 38°46' W 074°36'611.8
2017-Sep-18 15:00N 38°46' W 074°43'612.1
2017-Sep-18 14:30N 38°46' W 074°51'4 6.8
2017-Sep-18 13:58N 38°48' W 074°55'612.8
2017-Sep-18 13:29N 38°48' W 074°47'613.0
2017-Sep-18 13:00N 38°49' W 074°39'612.9
2017-Sep-18 12:30N 38°50' W 074°31'612.8
2017-Sep-18 12:00N 38°52' W 074°23'712.9
2017-Sep-18 11:27N 38°54' W 074°14'712.4
2017-Sep-18 10:55N 38°57' W 074°06'9 9.2
2017-Sep-18 09:56N 38°59' W 073°55'814.2
2017-Sep-18 09:20N 39°02' W 073°45'514.3
2017-Sep-18 08:58N 39°03' W 073°38'1614.5
2017-Sep-18 07:52N 39°08' W 073°18'614.3
2017-Sep-18 07:29N 39°09' W 073°12'714.3
2017-Sep-18 07:00N 39°12' W 073°03'714.4
2017-Sep-18 06:30N 39°14' W 072°54'714.8
2017-Sep-18 06:00N 39°16' W 072°45'814.5
2017-Sep-18 05:28N 39°19' W 072°36'714.2
2017-Sep-18 04:59N 39°21' W 072°27'2214.2
2017-Sep-18 03:26N 39°27' W 072°00'  
2017-Sep-13 06:22N 45°38' W 073°29'  
Track history (hours):
 
Tides and Currents Weather Stations Pressure Air Temp Water Temp Dewpoint Dewpoint Depression Visibility Wind Speed Wind Dir Waves Ship Positions

Elandra Oak

Last reported at 2017-Sep-22 01:58 UTC. Time now 2017-Sep-22 11:55 UTC.
Position N 39°49' W 075°24'.

Length 183 m; draft 12.2 m.

Type: Ship. MMSI: 538006775.

Date/timePositionNaut miles runAvg speedWind from/ knotsBaromVisibWave heightAir tempDewpointWater temp
2017-Sep-22 01:58N 39°49' W 075°24'0 0.1
2017-Sep-22 01:28N 39°49' W 075°24'0 0.0
2017-Sep-22 00:58N 39°49' W 075°24'0 0.0
2017-Sep-22 00:28N 39°49' W 075°24'0 0.0
2017-Sep-21 23:58N 39°49' W 075°24'0 0.0
2017-Sep-21 23:28N 39°49' W 075°24'0 0.0
2017-Sep-21 22:58N 39°49' W 075°24'0 0.0
2017-Sep-21 22:28N 39°49' W 075°24'0 0.0
2017-Sep-21 21:58N 39°49' W 075°24'0 0.0
2017-Sep-21 21:28N 39°49' W 075°24'0 0.0
2017-Sep-21 20:58N 39°49' W 075°24'0 0.0
2017-Sep-21 20:28N 39°49' W 075°24'0 0.3
2017-Sep-21 19:58N 39°49' W 075°24'0 0.1
2017-Sep-21 19:28N 39°49' W 075°24'0 0.0
2017-Sep-21 18:58N 39°49' W 075°24'0 0.1
2017-Sep-21 18:28N 39°49' W 075°24'0 0.0
2017-Sep-21 17:58N 39°49' W 075°24'0 0.7
2017-Sep-21 17:31N 39°49' W 075°23'2 3.8
2017-Sep-21 17:01N 39°50' W 075°22'4 7.3
2017-Sep-21 16:30N 39°51' W 075°17'4 7.3
2017-Sep-21 16:01N 39°52' W 075°13'2 4.7
2017-Sep-21 15:30N 39°53' W 075°10'0 0.1
2017-Sep-21 14:58N 39°53' W 075°10'0 0.0
2017-Sep-21 14:28N 39°53' W 075°10'0 0.0
2017-Sep-21 13:58N 39°53' W 075°10'0 0.0
2017-Sep-21 13:28N 39°53' W 075°10'0 0.0
2017-Sep-21 12:58N 39°53' W 075°10'0 0.0
2017-Sep-21 12:28N 39°53' W 075°10'0 0.0
2017-Sep-21 11:58N 39°53' W 075°10'0 0.0
2017-Sep-21 11:28N 39°53' W 075°10'0 0.0
2017-Sep-21 10:58N 39°53' W 075°10'0 0.0
2017-Sep-21 10:28N 39°53' W 075°10'0 0.0
2017-Sep-21 09:58N 39°53' W 075°10'0 0.0
2017-Sep-21 09:28N 39°53' W 075°10'0 0.0
2017-Sep-21 08:58N 39°53' W 075°10'0 0.0
2017-Sep-21 08:28N 39°53' W 075°10'0 0.0
2017-Sep-21 07:58N 39°53' W 075°10'0 0.0
2017-Sep-21 07:28N 39°53' W 075°10'0 0.0
2017-Sep-21 06:58N 39°53' W 075°10'0 0.0
2017-Sep-21 06:28N 39°53' W 075°10'0 0.0
2017-Sep-21 05:55N 39°53' W 075°10'0 0.0
2017-Sep-21 05:28N 39°53' W 075°10'0 0.0
2017-Sep-21 04:58N 39°53' W 075°10'0 0.0
2017-Sep-21 04:28N 39°53' W 075°10'0 0.0
2017-Sep-21 03:58N 39°53' W 075°10'0 0.0
2017-Sep-21 03:28N 39°53' W 075°10'0 0.0
2017-Sep-21 02:58N 39°53' W 075°10'0 0.0
2017-Sep-21 02:25N 39°53' W 075°10'0 0.0
2017-Sep-21 01:58N 39°53' W 075°10'0 0.0
2017-Sep-21 01:28N 39°53' W 075°10'0 0.0
2017-Sep-21 00:58N 39°53' W 075°10'0 0.0
2017-Sep-21 00:28N 39°53' W 075°10'0 0.0
2017-Sep-20 23:58N 39°53' W 075°10'0 0.0
2017-Sep-20 23:28N 39°53' W 075°10'0 0.0
2017-Sep-20 22:58N 39°53' W 075°10'0 0.0
2017-Sep-20 22:28N 39°53' W 075°10'0 0.0
2017-Sep-20 21:58N 39°53' W 075°10'0 0.0
2017-Sep-20 21:28N 39°53' W 075°10'0 0.0
2017-Sep-20 20:58N 39°53' W 075°10'0 0.0
2017-Sep-20 20:28N 39°53' W 075°10'0 0.0
2017-Sep-20 19:58N 39°53' W 075°10'0 0.0
2017-Sep-20 19:28N 39°53' W 075°10'0 0.0
2017-Sep-20 18:58N 39°53' W 075°10'0 0.0
2017-Sep-20 18:28N 39°53' W 075°10'0 0.0
2017-Sep-20 17:58N 39°53' W 075°10'0 0.0
2017-Sep-20 17:28N 39°53' W 075°10'0 0.0
2017-Sep-20 17:01N 39°53' W 075°10'1 1.8
2017-Sep-20 16:31N 39°53' W 075°11'1 1.7
2017-Sep-20 16:01N 39°53' W 075°12'1 1.0
2017-Sep-20 15:30N 39°54' W 075°12'0 0.2
2017-Sep-20 14:58N 39°54' W 075°12'0 0.0
2017-Sep-20 13:58N 39°54' W 075°12'0 0.0
2017-Sep-20 13:28N 39°54' W 075°12'0 0.0
2017-Sep-20 12:58N 39°54' W 075°12'0 0.0
2017-Sep-20 12:28N 39°54' W 075°12'0 0.0
2017-Sep-20 11:58N 39°54' W 075°12'0 0.0
2017-Sep-20 11:28N 39°54' W 075°12'0 0.0
2017-Sep-20 10:58N 39°54' W 075°12'0 0.0
2017-Sep-20 10:28N 39°54' W 075°12'0 0.0
2017-Sep-20 09:55N 39°54' W 075°12'0 0.0
2017-Sep-20 09:28N 39°54' W 075°12'0 0.0
2017-Sep-20 08:58N 39°54' W 075°12'0 0.0
2017-Sep-20 08:28N 39°54' W 075°12'0 0.0
2017-Sep-20 07:58N 39°54' W 075°12'0 0.0
2017-Sep-20 07:28N 39°54' W 075°12'0 0.0
2017-Sep-20 06:58N 39°54' W 075°12'0 0.0
2017-Sep-20 06:28N 39°54' W 075°12'0 0.0
2017-Sep-20 05:58N 39°54' W 075°12'0 0.0
2017-Sep-20 05:28N 39°54' W 075°12'0 0.0
2017-Sep-20 04:58N 39°54' W 075°12'0 0.0
2017-Sep-20 04:28N 39°54' W 075°12'0 0.0
2017-Sep-20 03:58N 39°54' W 075°12'0 0.0
2017-Sep-20 03:28N 39°54' W 075°12'0 0.0
2017-Sep-20 02:58N 39°54' W 075°12'0 0.0
2017-Sep-20 02:28N 39°54' W 075°12'0 0.0
2017-Sep-20 01:58N 39°54' W 075°12'0 0.0
2017-Sep-20 01:28N 39°54' W 075°12'0 0.0
2017-Sep-20 00:58N 39°54' W 075°12'0 0.0
2017-Sep-20 00:28N 39°54' W 075°12'0 0.0
2017-Sep-19 23:58N 39°54' W 075°12'0 0.0
2017-Sep-19 23:28N 39°54' W 075°12'0 0.0
2017-Sep-19 22:58N 39°54' W 075°12'0 0.0
2017-Sep-19 22:28N 39°54' W 075°12'0 0.0
2017-Sep-19 21:58N 39°54' W 075°12'0 0.0
2017-Sep-19 21:28N 39°54' W 075°12'0 0.0
2017-Sep-19 20:58N 39°54' W 075°12'0 0.0
2017-Sep-19 20:28N 39°54' W 075°12'0 0.0
2017-Sep-19 19:58N 39°54' W 075°12'0 0.0
2017-Sep-19 19:28N 39°54' W 075°12'0 0.0
2017-Sep-19 18:58N 39°54' W 075°12'0 0.0
2017-Sep-19 18:28N 39°54' W 075°12'0 0.0
2017-Sep-19 17:58N 39°54' W 075°12'0 0.0
2017-Sep-19 17:28N 39°54' W 075°12'0 0.0
2017-Sep-19 16:58N 39°54' W 075°12'0 0.0
2017-Sep-19 16:28N 39°54' W 075°12'0 0.0
2017-Sep-19 15:58N 39°54' W 075°12'0 0.0
2017-Sep-19 15:28N 39°54' W 075°12'0 0.0
2017-Sep-19 14:58N 39°54' W 075°12'0 0.0
2017-Sep-19 14:28N 39°54' W 075°12'0 0.0
2017-Sep-19 13:58N 39°54' W 075°12'0 0.0
2017-Sep-19 13:28N 39°54' W 075°12'0 0.0
2017-Sep-19 12:58N 39°54' W 075°12'0 0.0
2017-Sep-19 12:28N 39°54' W 075°12'0 0.0
2017-Sep-19 11:58N 39°54' W 075°12'0 0.0
2017-Sep-19 11:28N 39°54' W 075°12'0 0.0
2017-Sep-19 10:58N 39°54' W 075°12'0 0.0
2017-Sep-19 10:28N 39°54' W 075°12'0 0.0
2017-Sep-19 09:58N 39°54' W 075°12'0 0.0
2017-Sep-19 09:28N 39°54' W 075°12'0 0.0
2017-Sep-19 08:58N 39°54' W 075°12'0 0.0
2017-Sep-19 08:28N 39°54' W 075°12'0 0.0
2017-Sep-19 07:58N 39°54' W 075°12'0 0.0
2017-Sep-19 07:28N 39°54' W 075°12'0 0.0
2017-Sep-19 06:58N 39°54' W 075°12'0 0.0
2017-Sep-19 06:28N 39°54' W 075°12'0 0.0
2017-Sep-19 05:58N 39°54' W 075°12'0 0.0
2017-Sep-19 05:28N 39°54' W 075°12'0 0.0
2017-Sep-19 04:58N 39°54' W 075°12'0 0.0
2017-Sep-19 04:28N 39°54' W 075°12'0 0.0
2017-Sep-19 03:58N 39°54' W 075°12'0 0.0
2017-Sep-19 03:28N 39°54' W 075°12'0 0.0
2017-Sep-19 02:55N 39°54' W 075°12'0 0.0
2017-Sep-19 02:28N 39°54' W 075°12'0 0.1
2017-Sep-19 02:00N 39°54' W 075°12'1 2.2
2017-Sep-19 01:31N 39°53' W 075°12'3 6.5
2017-Sep-19 01:00N 39°51' W 075°16'611.5
2017-Sep-19 00:31N 39°49' W 075°23'4 8.5
2017-Sep-19 00:00N 39°47' W 075°28'611.7
2017-Sep-18 23:30N 39°42' W 075°31'612.0
2017-Sep-18 23:01N 39°36' W 075°34'510.6
2017-Sep-18 22:30N 39°31' W 075°33'612.1
2017-Sep-18 22:00N 39°25' W 075°31'713.0
2017-Sep-18 21:30N 39°20' W 075°25'713.1
2017-Sep-18 21:01N 39°15' W 075°20'713.2
2017-Sep-18 20:30N 39°10' W 075°15'713.7
2017-Sep-18 20:00N 39°04' W 075°11'713.6
2017-Sep-18 19:31N 38°58' W 075°07'613.0
2017-Sep-18 19:00N 38°52' W 075°04'5 9.7
2017-Sep-18 18:30N 38°47' W 075°02'5 9.5
2017-Sep-18 17:59N 38°48' W 074°56'612.8
2017-Sep-18 17:29N 38°48' W 074°47'613.0
2017-Sep-18 17:00N 38°49' W 074°39'610.8
2017-Sep-18 16:27N 38°50' W 074°32'1 2.6
2017-Sep-18 16:00N 38°49' W 074°32'4 8.6
2017-Sep-18 15:29N 38°46' W 074°36'611.8
2017-Sep-18 15:00N 38°46' W 074°43'612.1
2017-Sep-18 14:30N 38°46' W 074°51'4 6.8
2017-Sep-18 13:58N 38°48' W 074°55'612.8
2017-Sep-18 13:29N 38°48' W 074°47'613.0
2017-Sep-18 13:00N 38°49' W 074°39'612.9
2017-Sep-18 12:30N 38°50' W 074°31'612.8
2017-Sep-18 12:00N 38°52' W 074°23'712.9
2017-Sep-18 11:27N 38°54' W 074°14'712.4
2017-Sep-18 10:55N 38°57' W 074°06'9 9.2
2017-Sep-18 09:56N 38°59' W 073°55'814.2
2017-Sep-18 09:20N 39°02' W 073°45'514.3
2017-Sep-18 08:58N 39°03' W 073°38'1614.5
2017-Sep-18 07:52N 39°08' W 073°18'614.3
2017-Sep-18 07:29N 39°09' W 073°12'714.3
2017-Sep-18 07:00N 39°12' W 073°03'714.4
2017-Sep-18 06:30N 39°14' W 072°54'714.8
2017-Sep-18 06:00N 39°16' W 072°45'814.5
2017-Sep-18 05:28N 39°19' W 072°36'714.2
2017-Sep-18 04:59N 39°21' W 072°27'2214.2
2017-Sep-18 03:26N 39°27' W 072°00'  
2017-Sep-13 06:22N 45°38' W 073°29'  

Dump ship's entire track history